createdAt,value
2017-10-05T00:00:17.038Z,55.1
2017-10-05T00:05:22.431Z,55.1
2017-10-05T00:10:27.487Z,55.1
2017-10-05T00:15:33.211Z,55.1
2017-10-05T00:20:37.930Z,55.1
2017-10-05T00:25:43.325Z,55.1
2017-10-05T00:30:48.375Z,55.1
2017-10-05T00:35:54.100Z,55.1
2017-10-05T00:40:58.821Z,55.1
2017-10-05T00:46:03.875Z,55
2017-10-05T00:51:08.598Z,55
2017-10-05T00:56:13.652Z,55
2017-10-05T01:01:19.045Z,55
2017-10-05T01:06:23.767Z,55
2017-10-05T01:11:28.491Z,55
2017-10-05T01:16:33.883Z,55
2017-10-05T01:21:38.605Z,55
2017-10-05T01:26:44.006Z,55
2017-10-05T01:31:49.650Z,55
2017-10-05T01:36:55.063Z,55
2017-10-05T01:42:00.436Z,55
2017-10-05T01:47:05.822Z,55
2017-10-05T01:52:10.880Z,55
2017-10-05T01:57:16.944Z,55
2017-10-05T02:02:23.005Z,55
2017-10-05T02:07:27.401Z,55
2017-10-05T02:12:33.119Z,55
2017-10-05T02:17:38.849Z,55
2017-10-05T02:22:43.905Z,54.9
2017-10-05T02:27:48.293Z,54.9
2017-10-05T02:32:53.017Z,54.9
2017-10-05T02:37:58.410Z,54.9
2017-10-05T02:43:04.142Z,54.9
2017-10-05T02:48:08.194Z,54.9
2017-10-05T02:53:13.257Z,54.9
2017-10-05T02:58:18.320Z,54.9
2017-10-05T03:03:23.710Z,54.9
2017-10-05T03:08:28.766Z,54.9
2017-10-05T03:13:33.824Z,54.9
2017-10-05T03:18:38.215Z,54.9
2017-10-05T03:23:42.937Z,54.9
2017-10-05T03:28:47.707Z,54.9
2017-10-05T03:33:52.765Z,54.8
2017-10-05T03:38:57.822Z,54.8
2017-10-05T03:44:03.554Z,54.8
2017-10-05T03:49:08.611Z,54.8
2017-10-05T03:54:14.674Z,54.8
2017-10-05T03:59:19.401Z,54.8
2017-10-05T04:04:25.130Z,54.8
2017-10-05T04:09:30.390Z,54.8
2017-10-05T04:14:35.801Z,54.8
2017-10-05T04:19:41.527Z,54.8
2017-10-05T04:24:46.309Z,54.8
2017-10-05T04:29:52.046Z,54.8
2017-10-05T04:34:57.776Z,54.8
2017-10-05T04:40:02.834Z,54.8
2017-10-05T04:45:08.231Z,55.4
2017-10-05T04:50:13.624Z,55.6
2017-10-05T04:55:19.064Z,55.6
2017-10-05T05:00:23.794Z,55.5
2017-10-05T05:05:28.868Z,55.9
2017-10-05T05:10:33.597Z,56.6
2017-10-05T05:15:38.994Z,57.5
2017-10-05T05:20:44.050Z,57
2017-10-05T05:25:49.447Z,56.7
2017-10-05T05:30:54.860Z,56.5
2017-10-05T05:36:00.588Z,56.6
2017-10-05T05:41:05.651Z,56.7
2017-10-05T05:46:10.713Z,56.8
2017-10-05T05:51:16.440Z,57
2017-10-05T05:56:21.162Z,57.1
2017-10-05T06:01:26.563Z,57.1
2017-10-05T06:06:32.292Z,57.2
2017-10-05T06:11:37.021Z,57.3
2017-10-05T06:16:42.755Z,57.3
2017-10-05T06:21:47.484Z,57.3
2017-10-05T06:26:53.213Z,57.4
2017-10-05T06:31:58.941Z,57.4
2017-10-05T06:37:04.669Z,57.4
2017-10-05T06:42:09.729Z,57.4
2017-10-05T06:47:14.789Z,57.4
2017-10-05T06:52:20.182Z,57.4
2017-10-05T06:57:25.244Z,57.4
2017-10-05T07:02:29.973Z,57.5
2017-10-05T07:07:34.703Z,57.4
2017-10-05T07:12:39.762Z,57.4
2017-10-05T07:17:45.494Z,57.4
2017-10-05T07:22:50.889Z,57.4
2017-10-05T07:27:55.946Z,57.4
2017-10-05T07:33:01.011Z,57.4
2017-10-05T07:38:06.076Z,57.4
2017-10-05T07:43:11.472Z,57.4
2017-10-05T07:48:16.867Z,57.4
2017-10-05T07:53:21.925Z,57.4
2017-10-05T07:58:27.660Z,57.3
2017-10-05T08:03:32.721Z,57.3
2017-10-05T08:08:38.114Z,57.3
2017-10-05T08:13:42.839Z,57.3
2017-10-05T08:18:48.232Z,57.3
2017-10-05T08:23:53.627Z,57.3
2017-10-05T08:28:59.360Z,57.3
2017-10-05T08:34:04.754Z,57.3
2017-10-05T08:39:10.483Z,57.2
2017-10-05T08:44:15.879Z,57.2
2017-10-05T08:49:21.271Z,57.2
2017-10-05T08:54:26.665Z,57.1
2017-10-05T08:59:31.720Z,57.1
2017-10-05T09:04:37.449Z,57.1
2017-10-05T09:09:42.842Z,57.1
2017-10-05T09:14:48.235Z,57
2017-10-05T09:19:53.299Z,57
2017-10-05T09:24:58.690Z,56.9
2017-10-05T09:30:04.758Z,56.9
2017-10-05T09:35:10.159Z,56.9
2017-10-05T09:40:15.216Z,56.8
2017-10-05T09:45:20.275Z,56.8
2017-10-05T09:50:25.673Z,56.8
2017-10-05T09:55:30.742Z,56.8
2017-10-05T10:00:36.477Z,56.8
2017-10-05T10:05:41.877Z,56.7
2017-10-05T10:10:47.274Z,56.7
2017-10-05T10:15:53.006Z,56.6
2017-10-05T10:20:58.405Z,56.6
2017-10-05T10:26:04.468Z,56.6
2017-10-05T10:31:09.193Z,56.5
2017-10-05T10:36:14.590Z,56.5
2017-10-05T10:41:19.983Z,56.4
2017-10-05T10:46:24.711Z,56.4
2017-10-05T10:51:29.769Z,56.4
2017-10-05T10:56:34.834Z,56.4
2017-10-05T11:01:39.891Z,56.4
2017-10-05T11:06:44.960Z,56.4
2017-10-05T11:11:50.688Z,56.4
2017-10-05T11:16:56.420Z,56.2
2017-10-05T11:22:01.482Z,56.2
2017-10-05T11:27:07.211Z,56.2
2017-10-05T11:32:12.938Z,56.2
2017-10-05T11:37:18.001Z,55.6
2017-10-05T11:42:23.060Z,56
2017-10-05T11:47:27.452Z,55.9
2017-10-05T11:52:32.850Z,55.9
2017-10-05T11:58:22.006Z,55.9
2017-10-05T12:03:26.741Z,55.8
2017-10-05T12:08:31.801Z,55.7
2017-10-05T12:13:37.199Z,55.7
2017-10-05T12:18:42.257Z,55.6
2017-10-05T12:23:46.989Z,55.6
2017-10-05T12:28:52.393Z,55.5
2017-10-05T12:33:57.454Z,55.5
2017-10-05T12:39:02.514Z,55.4
2017-10-05T12:44:07.242Z,55.4
2017-10-05T12:49:12.640Z,55.3
2017-10-05T12:54:17.368Z,55.3
2017-10-05T12:59:22.430Z,55.3
2017-10-05T13:04:27.496Z,55.2
2017-10-05T13:09:33.381Z,55.2
2017-10-05T13:14:38.463Z,55.2
2017-10-05T13:19:44.178Z,55.2
2017-10-05T13:24:49.241Z,55.1
2017-10-05T13:29:55.309Z,55.2
2017-10-05T13:35:00.371Z,55.3
2017-10-05T13:40:05.775Z,55.3
2017-10-05T13:45:11.842Z,55.3
2017-10-05T13:50:16.908Z,55.2
2017-10-05T13:55:21.967Z,55.2
2017-10-05T14:00:27.700Z,55.3
2017-10-05T14:05:33.092Z,55.2
2017-10-05T14:10:38.154Z,55.3
2017-10-05T14:15:43.216Z,55.3
2017-10-05T14:20:47.276Z,55.4
2017-10-05T14:25:52.671Z,55.4
2017-10-05T14:30:57.066Z,55.5
2017-10-05T14:36:02.460Z,56
2017-10-05T14:41:07.185Z,56.3
2017-10-05T14:46:12.245Z,56.5
2017-10-05T14:51:16.988Z,56.6
2017-10-05T14:56:21.717Z,56.7
2017-10-05T15:01:26.445Z,56.6
2017-10-05T15:06:31.516Z,56.5
2017-10-05T15:11:36.274Z,56.6
2017-10-05T15:16:41.669Z,56.6
2017-10-05T15:21:46.394Z,56.6
2017-10-05T15:26:51.173Z,56.5
2017-10-05T15:31:56.930Z,56.4
2017-10-05T15:37:01.656Z,56.3
2017-10-05T15:42:06.716Z,56.2
2017-10-05T15:47:11.780Z,56.2
2017-10-05T15:52:16.507Z,56.2
2017-10-05T15:57:21.901Z,56.2
2017-10-05T16:02:26.967Z,56.1
2017-10-05T16:07:32.039Z,56.1
2017-10-05T16:12:37.462Z,56.2
2017-10-05T16:17:43.193Z,56.2
2017-10-05T16:22:48.824Z,56.2
2017-10-05T16:27:54.258Z,56.2
2017-10-05T16:32:59.706Z,56.3
2017-10-05T16:38:04.108Z,56.3
2017-10-05T16:43:09.520Z,56.4
2017-10-05T16:48:14.940Z,56.4
2017-10-05T16:53:20.008Z,56.4
2017-10-05T16:58:25.418Z,56.4
2017-10-05T17:03:29.829Z,56.4
2017-10-05T17:08:34.920Z,56.4
2017-10-05T17:13:40.335Z,56.6
2017-10-05T17:18:45.770Z,56.7
2017-10-05T17:23:50.179Z,56.8
2017-10-05T17:28:54.928Z,56.8
2017-10-05T17:33:59.675Z,56.9
2017-10-05T17:39:05.104Z,56.9
2017-10-05T17:44:11.185Z,57.1
2017-10-05T17:49:16.943Z,57.3
2017-10-05T17:54:22.364Z,57.5
2017-10-05T17:59:27.447Z,57.5
2017-10-05T18:04:32.186Z,57.5
2017-10-05T18:09:36.965Z,57.6
2017-10-05T18:14:42.725Z,57.7
2017-10-05T18:19:47.859Z,57.7
2017-10-05T18:24:52.399Z,57.8
2017-10-05T18:29:58.465Z,57.9
2017-10-05T18:35:03.867Z,57.9
2017-10-05T18:40:08.939Z,57.9
2017-10-05T18:45:15.012Z,57.9
2017-10-05T18:50:20.410Z,58
2017-10-05T18:55:25.154Z,58
2017-10-05T19:00:30.228Z,58
2017-10-05T19:05:35.644Z,58
2017-10-05T19:10:40.397Z,58
2017-10-05T19:15:45.140Z,58.1
2017-10-05T19:20:50.888Z,58.1
2017-10-05T19:25:55.959Z,58.2
2017-10-05T19:31:01.703Z,58.1
2017-10-05T19:36:06.774Z,58.1
2017-10-05T19:41:11.847Z,58.1
2017-10-05T19:46:16.925Z,58.1
2017-10-05T19:51:22.048Z,58.2
2017-10-05T19:56:26.454Z,58.2
2017-10-05T20:01:31.189Z,58.3
2017-10-05T20:06:36.604Z,58.3
2017-10-05T20:11:41.340Z,58.3
2017-10-05T20:16:46.749Z,58.4
2017-10-05T20:21:51.484Z,58.4
2017-10-05T20:26:57.223Z,58.4
2017-10-05T20:32:02.631Z,58.4
2017-10-05T20:37:07.034Z,58.4
2017-10-05T20:42:12.444Z,58.3
2017-10-05T20:47:17.179Z,58.3
2017-10-05T20:52:22.593Z,58.2
2017-10-05T20:57:27.663Z,58.2
2017-10-05T21:02:33.065Z,58.2
2017-10-05T21:07:37.802Z,58.1
2017-10-05T21:12:43.556Z,58.1
2017-10-05T21:17:48.640Z,58.1
2017-10-05T21:22:53.377Z,58
2017-10-05T21:27:58.782Z,58
2017-10-05T21:33:03.517Z,57.9
2017-10-05T21:38:08.254Z,57.9
2017-10-05T21:43:13.657Z,57.9
2017-10-05T21:48:19.067Z,57.9
2017-10-05T21:53:23.459Z,57.8
2017-10-05T21:58:29.195Z,57.8
2017-10-05T22:03:33.926Z,57.8
2017-10-05T22:08:38.996Z,57.8
2017-10-05T22:13:44.401Z,57.8
2017-10-05T22:18:50.135Z,57.8
2017-10-05T22:23:55.536Z,57.8
2017-10-05T22:28:59.602Z,57.7
2017-10-05T22:34:04.004Z,57.7
2017-10-05T22:39:09.068Z,57.7
2017-10-05T22:44:13.799Z,57.7
2017-10-05T22:49:18.862Z,57.7
2017-10-05T22:54:23.933Z,57.7
2017-10-05T22:59:28.321Z,57.7
2017-10-05T23:04:34.055Z,57.6
2017-10-05T23:09:39.122Z,57.6
2017-10-05T23:14:44.519Z,57.6
2017-10-05T23:19:49.918Z,57.6
2017-10-05T23:24:55.325Z,57.5
2017-10-05T23:30:01.063Z,57.5
2017-10-05T23:35:05.794Z,57.5
2017-10-05T23:40:10.864Z,57.5
2017-10-05T23:45:15.926Z,57.5
2017-10-05T23:50:20.993Z,57.5
2017-10-05T23:55:26.063Z,57.4
